Time;durP1;ratioP1;P1;durP2;ratioP2;P2;SDS_P1;SDS_P2;PMS_P1;PMS_P2;Temp;Humidity;BMP_temperature;BMP_pressure;BME280_temperature;BME280_humidity;BME280_pressure;Samples;Min_cycle;Max_cycle;Signal;HPM_P1;HPM_P2
2021/05/27 00:00:30;;;;;;;22.67;11.47;;;11.40;94.10;;;;;;5054259;28;20025;-75
2021/05/27 00:02:56;;;;;;;30.10;13.00;;;11.40;94.10;;;;;;5055704;28;20021;-78
2021/05/27 00:05:22;;;;;;;22.17;11.20;;;11.40;94.10;;;;;;5055231;28;20029;-76
2021/05/27 00:07:49;;;;;;;27.60;11.53;;;11.30;94.00;;;;;;5037519;28;20025;-76
2021/05/27 00:10:19;;;;;;;27.67;11.07;;;11.40;94.00;;;;;;5054678;28;20072;-81
2021/05/27 00:12:45;;;;;;;24.70;11.17;;;11.30;93.90;;;;;;5069578;28;20503;-74
2021/05/27 00:15:12;;;;;;;27.70;11.57;;;11.30;93.80;;;;;;5074612;28;20112;-79
2021/05/27 00:17:39;;;;;;;27.87;12.23;;;11.30;93.90;;;;;;5072440;28;20473;-76
2021/05/27 00:20:06;;;;;;;26.83;10.40;;;11.40;93.90;;;;;;5071700;28;20048;-77
2021/05/27 00:22:32;;;;;;;23.63;10.57;;;11.30;93.80;;;;;;5053003;28;20025;-73
2021/05/27 00:24:58;;;;;;;23.93;10.17;;;11.20;93.80;;;;;;5054153;28;20033;-77
2021/05/27 00:27:24;;;;;;;32.70;11.20;;;11.20;93.80;;;;;;5036738;28;20036;-76
2021/05/27 00:29:49;;;;;;;29.13;11.90;;;11.20;93.90;;;;;;5054116;28;20036;-74
2021/05/27 00:32:15;;;;;;;29.77;10.77;;;11.20;94.00;;;;;;5054279;28;20032;-75
2021/05/27 00:34:41;;;;;;;27.37;12.13;;;11.10;94.10;;;;;;5052871;28;20051;-75
2021/05/27 00:37:06;;;;;;;33.40;12.53;;;11.10;94.10;;;;;;5036203;28;20114;-76
2021/05/27 00:39:32;;;;;;;29.37;11.80;;;11.10;94.30;;;;;;5052993;28;20414;-76
2021/05/27 00:41:58;;;;;;;27.40;12.53;;;11.10;94.40;;;;;;5036178;28;20027;-76
2021/05/27 00:44:30;;;;;;;29.27;11.60;;;11.10;94.70;;;;;;5054092;28;20049;-74
2021/05/27 00:46:58;;;;;;;26.37;13.07;;;11.00;94.40;;;;;;5053981;28;20036;-75
2021/05/27 00:49:25;;;;;;;29.17;12.70;;;11.00;94.50;;;;;;5054527;28;20055;-76
2021/05/27 00:51:51;;;;;;;29.23;11.50;;;11.00;94.60;;;;;;5036411;28;20388;-75
2021/05/27 00:54:18;;;;;;;26.93;12.10;;;10.90;94.60;;;;;;5053826;28;20025;-76
2021/05/27 00:56:44;;;;;;;30.30;11.57;;;10.90;94.70;;;;;;5052508;28;20021;-74
2021/05/27 00:59:10;;;;;;;26.57;10.60;;;10.90;94.70;;;;;;5052464;28;20389;-75
2021/05/27 01:01:36;;;;;;;21.90;10.87;;;10.90;94.60;;;;;;5052517;28;20024;-75
2021/05/27 01:04:03;;;;;;;28.87;11.57;;;10.90;94.60;;;;;;5052384;28;20095;-76
2021/05/27 01:06:29;;;;;;;21.07;10.83;;;10.90;94.60;;;;;;5045920;28;20380;-75
2021/05/27 01:08:55;;;;;;;23.00;10.90;;;10.90;94.50;;;;;;5052367;28;20039;-75
2021/05/27 01:11:21;;;;;;;25.73;11.40;;;10.80;94.50;;;;;;5053416;28;20025;-75
2021/05/27 01:13:47;;;;;;;30.10;11.27;;;10.80;94.50;;;;;;5053677;28;20131;-74
2021/05/27 01:16:14;;;;;;;24.40;11.27;;;10.80;94.50;;;;;;5064554;28;20032;-77
2021/05/27 01:18:40;;;;;;;30.57;11.57;;;10.80;94.50;;;;;;5072361;28;20031;-75
2021/05/27 01:21:06;;;;;;;28.83;11.40;;;10.80;94.60;;;;;;5073285;28;20044;-75
2021/05/27 01:23:32;;;;;;;28.83;11.80;;;10.80;94.60;;;;;;5073482;28;20024;-75
2021/05/27 01:25:58;;;;;;;27.10;11.33;;;10.70;94.90;;;;;;5055503;28;20506;-74
2021/05/27 01:28:28;;;;;;;31.20;11.00;;;10.80;94.80;;;;;;5071934;28;20369;-75
2021/05/27 01:30:54;;;;;;;26.03;10.37;;;10.70;94.80;;;;;;5073280;28;20025;-76
2021/05/27 01:33:19;;;;;;;28.00;11.43;;;10.70;94.80;;;;;;5066078;28;20036;-75
2021/05/27 01:35:46;;;;;;;26.60;10.50;;;10.70;94.90;;;;;;5051876;28;20476;-75
2021/05/27 01:38:14;;;;;;;22.83;10.33;;;10.60;94.90;;;;;;5053272;28;20511;-75
2021/05/27 01:40:40;;;;;;;28.10;10.73;;;10.60;94.90;;;;;;5053145;28;20052;-75
2021/05/27 01:43:06;;;;;;;23.07;10.27;;;10.60;95.00;;;;;;5053165;28;20104;-74
2021/05/27 01:45:32;;;;;;;26.27;10.83;;;10.60;95.00;;;;;;5051932;28;20523;-76
2021/05/27 01:47:59;;;;;;;24.20;9.80;;;10.50;95.00;;;;;;5052942;28;20032;-76
2021/05/27 01:50:25;;;;;;;29.20;10.87;;;10.60;95.20;;;;;;5051868;28;20372;-74
2021/05/27 01:52:55;;;;;;;25.37;11.03;;;10.60;95.30;;;;;;5054182;28;20031;-74
2021/05/27 01:55:21;;;;;;;29.53;11.50;;;10.50;95.30;;;;;;5052925;28;20091;-74
2021/05/27 01:57:46;;;;;;;34.10;12.43;;;10.50;95.40;;;;;;5051753;28;20473;-73
2021/05/27 02:00:12;;;;;;;25.00;11.07;;;10.60;95.50;;;;;;5053068;28;20053;-74
2021/05/27 02:02:38;;;;;;;27.17;10.73;;;10.50;95.60;;;;;;5052961;28;20549;-74
2021/05/27 02:05:04;;;;;;;30.57;10.67;;;10.40;95.60;;;;;;5035060;28;20063;-74
2021/05/27 02:07:30;;;;;;;25.87;11.50;;;10.40;95.80;;;;;;5052868;28;20036;-73
2021/05/27 02:09:55;;;;;;;35.23;12.90;;;10.30;95.90;;;;;;5052784;28;20037;-74
2021/05/27 02:12:22;;;;;;;26.07;11.23;;;10.30;96.10;;;;;;5060217;28;20477;-74
2021/05/27 02:14:48;;;;;;;26.93;12.53;;;10.20;96.20;;;;;;5052738;28;20055;-75
2021/05/27 02:17:14;;;;;;;24.50;11.90;;;10.20;96.30;;;;;;5051413;28;20037;-77
2021/05/27 02:19:39;;;;;;;25.83;10.93;;;10.20;96.40;;;;;;5051794;28;20028;-74
2021/05/27 02:22:05;;;;;;;23.90;10.93;;;10.20;96.50;;;;;;5051349;28;20049;-73
2021/05/27 02:24:31;;;;;;;30.97;11.57;;;10.20;96.60;;;;;;5051571;28;20408;-74
2021/05/27 02:26:57;;;;;;;29.90;11.23;;;10.10;96.70;;;;;;5051525;28;20055;-73
2021/05/27 02:29:22;;;;;;;33.03;12.23;;;10.10;96.80;;;;;;5068793;28;20107;-74
2021/05/27 02:31:48;;;;;;;24.30;12.03;;;10.10;97.00;;;;;;5072618;28;20481;-74
2021/05/27 02:34:14;;;;;;;33.23;12.87;;;10.10;97.00;;;;;;5054704;28;20384;-74
2021/05/27 02:36:39;;;;;;;31.13;13.00;;;10.00;97.10;;;;;;5054699;28;20032;-75
2021/05/27 02:39:06;;;;;;;32.40;12.73;;;10.00;97.50;;;;;;5071346;28;20029;-74
2021/05/27 02:41:32;;;;;;;29.07;12.97;;;10.00;97.30;;;;;;5074075;28;20089;-76
2021/05/27 02:43:58;;;;;;;29.70;13.20;;;9.90;97.40;;;;;;5076171;28;20029;-73
2021/05/27 02:46:23;;;;;;;36.27;15.87;;;9.80;97.40;;;;;;5074558;28;20097;-76
2021/05/27 02:48:49;;;;;;;37.73;15.60;;;9.90;97.60;;;;;;5076491;28;20032;-74
2021/05/27 02:51:15;;;;;;;39.83;15.83;;;10.00;97.70;;;;;;5076160;28;20031;-75
2021/05/27 02:53:41;;;;;;;41.53;15.00;;;9.90;97.70;;;;;;5076089;28;20472;-72
2021/05/27 02:56:06;;;;;;;37.17;15.07;;;9.90;97.80;;;;;;5074696;28;20043;-75
2021/05/27 02:58:32;;;;;;;32.90;14.77;;;9.80;97.80;;;;;;5058159;28;20032;-76
2021/05/27 03:00:58;;;;;;;38.30;15.83;;;9.80;98.00;;;;;;5075841;28;20436;-74
2021/05/27 03:03:23;;;;;;;32.40;15.57;;;9.80;98.00;;;;;;5075208;28;20031;-74
2021/05/27 03:05:49;;;;;;;32.47;14.63;;;9.80;98.00;;;;;;5054064;28;20032;-74
2021/05/27 03:08:16;;;;;;;40.47;16.23;;;9.80;98.00;;;;;;5069165;28;20082;-75
2021/05/27 03:10:42;;;;;;;34.53;14.97;;;9.80;98.10;;;;;;5057668;28;20075;-74
2021/05/27 03:13:09;;;;;;;38.27;15.73;;;9.80;98.20;;;;;;5057709;28;20476;-76
2021/05/27 03:15:35;;;;;;;36.27;17.43;;;9.80;98.20;;;;;;5075513;28;20070;-74
2021/05/27 03:18:03;;;;;;;39.83;17.27;;;9.80;98.20;;;;;;5074531;28;20028;-73
2021/05/27 03:20:29;;;;;;;38.70;16.83;;;9.80;98.20;;;;;;5074343;28;20055;-73
2021/05/27 03:22:55;;;;;;;38.70;15.90;;;9.80;98.30;;;;;;5073736;28;20032;-73
2021/05/27 03:25:21;;;;;;;37.17;15.00;;;9.80;98.30;;;;;;5075254;28;20043;-75
2021/05/27 03:27:47;;;;;;;37.87;16.10;;;9.80;98.40;;;;;;5075499;28;20472;-73
2021/05/27 03:30:13;;;;;;;35.37;15.20;;;9.80;98.40;;;;;;5074262;28;20044;-72
2021/05/27 03:32:40;;;;;;;33.50;15.17;;;9.70;98.50;;;;;;5075580;28;20032;-76
2021/05/27 03:35:07;;;;;;;43.63;16.63;;;9.70;98.50;;;;;;5075547;28;20032;-76
2021/05/27 03:37:33;;;;;;;34.93;15.93;;;9.70;98.50;;;;;;5057871;28;20029;-75
2021/05/27 03:42:36;;;;;;;43.67;15.77;;;9.70;98.60;;;;;;5055614;28;20064;-75
2021/05/27 03:45:05;;;;;;;42.00;15.50;;;9.70;98.60;;;;;;5043987;28;20041;-74
2021/05/27 03:47:31;;;;;;;29.30;14.40;;;9.70;98.90;;;;;;5055168;28;20390;-74
2021/05/27 03:49:57;;;;;;;37.23;14.33;;;9.70;98.60;;;;;;5037105;28;20035;-73
2021/05/27 03:52:22;;;;;;;36.17;14.43;;;9.70;98.70;;;;;;5037038;28;20040;-74
2021/05/27 03:54:48;;;;;;;38.43;14.83;;;9.70;98.70;;;;;;5053591;28;20021;-73
2021/05/27 03:57:13;;;;;;;35.73;14.30;;;9.70;98.80;;;;;;5046169;28;20538;-74
2021/05/27 04:02:23;;;;;;;41.28;15.55;;;9.70;98.80;;;;;;5054402;28;20048;-75
2021/05/27 04:07:33;;;;;;;36.55;16.23;;;9.70;98.90;;;;;;5053322;28;20051;-74
2021/05/27 04:09:58;;;;;;;37.57;14.10;;;9.60;99.10;;;;;;5020396;28;20469;-75
2021/05/27 04:15:21;;;;;;;30.25;12.98;;;9.70;98.90;;;;;;5054405;28;20542;-75
2021/05/27 04:17:58;;;;;;;34.63;14.13;;;9.70;98.90;;;;;;5053361;28;20029;-75
2021/05/27 04:20:26;;;;;;;42.80;14.10;;;9.70;99.00;;;;;;5054441;28;20477;-75
2021/05/27 04:22:52;;;;;;;32.07;13.63;;;9.70;99.00;;;;;;5054315;28;20021;-73
2021/05/27 04:25:19;;;;;;;33.93;12.93;;;9.70;99.00;;;;;;5053252;28;20044;-74
2021/05/27 04:27:45;;;;;;;34.63;14.70;;;9.70;99.00;;;;;;5054203;28;20469;-74
2021/05/27 04:30:14;;;;;;;26.53;13.27;;;9.70;99.00;;;;;;5053254;28;20051;-74
2021/05/27 04:35:27;;;;;;;26.33;13.03;;;9.70;99.00;;;;;;5054101;28;20480;-75
2021/05/27 04:37:54;;;;;;;32.27;13.97;;;9.70;99.10;;;;;;5054030;28;20075;-74
2021/05/27 04:40:20;;;;;;;28.47;13.67;;;9.70;99.10;;;;;;5052837;28;20408;-75
2021/05/27 04:42:46;;;;;;;28.60;13.27;;;9.70;99.10;;;;;;5054082;28;20484;-75
2021/05/27 04:45:12;;;;;;;30.43;12.57;;;9.70;99.10;;;;;;5052781;28;20033;-75
2021/05/27 04:47:38;;;;;;;29.47;12.37;;;9.70;99.10;;;;;;5052681;28;20374;-73
2021/05/27 04:50:06;;;;;;;34.50;12.73;;;9.70;99.10;;;;;;5052759;28;20033;-76
2021/05/27 04:52:33;;;;;;;37.10;14.13;;;9.70;99.10;;;;;;5054377;28;20392;-74
2021/05/27 04:54:59;;;;;;;32.67;13.07;;;9.70;99.10;;;;;;5053759;28;20159;-75
2021/05/27 04:57:24;;;;;;;30.17;14.57;;;9.80;99.10;;;;;;5052642;28;20048;-75
2021/05/27 04:59:50;;;;;;;31.93;13.83;;;9.80;99.20;;;;;;5052474;28;20029;-75
2021/05/27 05:02:16;;;;;;;32.17;13.93;;;9.90;99.20;;;;;;5052482;28;20031;-75
2021/05/27 05:04:42;;;;;;;31.40;14.03;;;9.80;99.10;;;;;;5035429;28;20116;-75
2021/05/27 05:07:08;;;;;;;35.40;13.40;;;9.80;99.10;;;;;;5053675;28;20029;-75
2021/05/27 05:09:34;;;;;;;36.70;13.60;;;9.80;99.10;;;;;;5065330;28;20086;-75
2021/05/27 05:11:59;;;;;;;27.33;12.40;;;9.80;99.10;;;;;;5055708;28;20024;-76
2021/05/27 05:14:25;;;;;;;31.77;12.50;;;9.80;99.10;;;;;;5073370;28;20476;-76
2021/05/27 05:16:50;;;;;;;41.67;14.50;;;9.80;99.10;;;;;;5073112;28;20033;-77
2021/05/27 05:19:17;;;;;;;38.43;13.93;;;9.80;99.40;;;;;;5051712;28;20478;-73
2021/05/27 05:21:42;;;;;;;31.57;13.20;;;9.80;99.10;;;;;;5037232;28;20045;-74
2021/05/27 05:24:08;;;;;;;32.07;13.70;;;9.80;99.10;;;;;;5072376;28;20024;-72
2021/05/27 05:26:34;;;;;;;34.30;13.20;;;9.80;99.10;;;;;;5063882;28;20063;-72
2021/05/27 05:29:00;;;;;;;31.40;12.97;;;9.80;99.10;;;;;;5070470;28;20128;-74
2021/05/27 05:31:26;;;;;;;38.67;14.70;;;9.80;99.10;;;;;;5065390;28;20044;-72
2021/05/27 05:33:55;;;;;;;37.23;13.70;;;9.80;99.10;;;;;;5052305;28;20041;-74
2021/05/27 05:36:22;;;;;;;35.63;13.27;;;9.80;99.10;;;;;;5061074;28;20036;-72
2021/05/27 05:38:48;;;;;;;32.97;12.33;;;9.80;99.10;;;;;;5061163;28;20163;-74
2021/05/27 05:41:14;;;;;;;32.60;13.57;;;9.80;99.10;;;;;;5060965;28;20036;-74
2021/05/27 05:43:39;;;;;;;31.97;13.53;;;9.80;99.10;;;;;;5051502;28;20028;-77
2021/05/27 05:46:06;;;;;;;39.47;15.63;;;9.90;99.40;;;;;;5027116;28;20031;-75
2021/05/27 05:48:32;;;;;;;30.53;12.37;;;9.90;99.10;;;;;;5046090;28;20473;-75
2021/05/27 05:50:59;;;;;;;30.80;13.97;;;9.90;99.20;;;;;;5058479;28;20029;-74
2021/05/27 05:53:25;;;;;;;35.67;13.93;;;9.90;99.20;;;;;;5054608;28;20036;-72
2021/05/27 05:55:52;;;;;;;33.67;13.07;;;9.90;99.20;;;;;;5052176;28;20397;-72
2021/05/27 05:58:19;;;;;;;32.87;12.70;;;9.90;99.20;;;;;;5053202;28;20071;-73
2021/05/27 06:00:45;;;;;;;37.43;14.00;;;9.90;99.20;;;;;;5053228;28;20025;-72
2021/05/27 06:03:12;;;;;;;34.13;13.80;;;9.90;99.20;;;;;;5053266;28;20029;-73
2021/05/27 06:05:37;;;;;;;32.33;13.17;;;9.90;99.20;;;;;;5053974;28;20033;-72
2021/05/27 06:08:03;;;;;;;34.07;11.77;;;10.00;99.20;;;;;;5064101;28;20039;-73
2021/05/27 06:10:29;;;;;;;26.13;10.83;;;9.90;99.20;;;;;;5066769;28;20033;-73
2021/05/27 06:12:56;;;;;;;29.53;13.33;;;10.00;99.20;;;;;;5055273;28;20047;-73
2021/05/27 06:15:23;;;;;;;35.07;12.63;;;10.00;99.20;;;;;;5052926;28;20031;-74
2021/05/27 06:17:50;;;;;;;31.63;13.10;;;10.00;99.20;;;;;;5055474;28;20400;-74
2021/05/27 06:20:16;;;;;;;27.63;12.30;;;10.00;99.20;;;;;;5062100;28;20040;-74
2021/05/27 06:22:42;;;;;;;36.57;12.53;;;10.00;99.20;;;;;;5065243;28;20037;-74
2021/05/27 06:25:08;;;;;;;31.50;13.20;;;10.00;99.20;;;;;;5054993;28;20108;-76
2021/05/27 06:27:34;;;;;;;29.97;11.97;;;10.00;99.10;;;;;;5037910;28;20388;-73
2021/05/27 06:30:00;;;;;;;29.20;11.97;;;10.10;99.40;;;;;;5066596;28;20041;-75
2021/05/27 06:32:26;;;;;;;31.43;11.83;;;10.10;99.10;;;;;;5060671;28;20029;-74
2021/05/27 06:34:54;;;;;;;23.00;9.97;;;10.10;99.10;;;;;;5068044;28;20365;-75
2021/05/27 06:37:20;;;;;;;31.73;10.43;;;10.10;99.10;;;;;;5055614;28;20389;-74
2021/05/27 06:39:46;;;;;;;22.63;9.97;;;10.20;99.10;;;;;;5038488;28;20033;-73
2021/05/27 06:42:13;;;;;;;29.23;10.83;;;10.20;99.10;;;;;;5056368;28;20033;-74
2021/05/27 06:44:39;;;;;;;31.17;11.10;;;10.10;99.00;;;;;;5055157;28;20033;-76
2021/05/27 06:47:05;;;;;;;29.37;10.93;;;10.20;99.00;;;;;;5054925;28;20029;-73
2021/05/27 06:49:30;;;;;;;28.33;10.83;;;10.20;99.00;;;;;;5056142;28;20168;-74
2021/05/27 06:51:57;;;;;;;31.30;10.90;;;10.20;99.10;;;;;;5055031;28;20025;-74
2021/05/27 06:54:23;;;;;;;23.23;9.97;;;10.20;99.00;;;;;;5055192;28;20107;-73
2021/05/27 06:56:50;;;;;;;29.33;11.27;;;10.30;99.10;;;;;;5056142;28;20036;-75
2021/05/27 06:59:16;;;;;;;32.60;10.50;;;10.30;99.10;;;;;;5054973;28;20029;-73
2021/05/27 07:01:42;;;;;;;27.83;10.80;;;10.30;99.10;;;;;;5055065;28;20112;-73
2021/05/27 07:04:07;;;;;;;22.73;9.97;;;10.30;99.00;;;;;;5055930;28;20503;-74
2021/05/27 07:06:33;;;;;;;25.60;9.93;;;10.30;98.90;;;;;;5054858;28;20060;-75
2021/05/27 07:08:58;;;;;;;28.37;10.33;;;10.40;98.90;;;;;;5054715;28;20035;-73
2021/05/27 07:11:24;;;;;;;26.20;10.20;;;10.40;98.90;;;;;;5037924;28;20033;-74
2021/05/27 07:13:56;;;;;;;23.20;9.70;;;10.40;98.90;;;;;;5060940;28;20090;-73
2021/05/27 07:16:22;;;;;;;27.67;10.13;;;10.40;98.90;;;;;;5059655;28;20033;-75
2021/05/27 07:18:47;;;;;;;25.97;9.17;;;10.40;98.80;;;;;;5065296;28;20032;-72
2021/05/27 07:21:13;;;;;;;24.83;8.90;;;10.40;98.80;;;;;;5044385;28;20052;-75
2021/05/27 07:23:39;;;;;;;23.27;8.63;;;10.40;98.80;;;;;;5046775;28;20086;-72
2021/05/27 07:26:05;;;;;;;23.77;9.03;;;10.40;99.00;;;;;;5074505;28;20028;-74
2021/05/27 07:28:31;;;;;;;26.77;10.37;;;10.40;98.80;;;;;;5074334;28;20421;-72
2021/05/27 07:30:57;;;;;;;27.13;9.67;;;10.40;98.80;;;;;;5074511;28;20029;-73
2021/05/27 07:33:22;;;;;;;25.37;9.17;;;10.40;98.80;;;;;;5074247;28;20365;-73
2021/05/27 07:35:48;;;;;;;20.93;8.53;;;10.50;98.70;;;;;;5074349;28;20048;-74
2021/05/27 07:38:14;;;;;;;27.00;9.07;;;10.40;98.60;;;;;;5057563;28;20033;-74
2021/05/27 07:40:40;;;;;;;22.17;8.90;;;10.50;98.60;;;;;;5074141;28;20070;-74
2021/05/27 07:43:05;;;;;;;26.63;9.17;;;10.50;98.80;;;;;;5074290;28;20107;-73
2021/05/27 07:45:31;;;;;;;21.77;8.03;;;10.50;98.50;;;;;;5057663;28;20028;-74
2021/05/27 07:47:57;;;;;;;24.87;9.77;;;10.50;98.50;;;;;;5075449;28;20111;-73
2021/05/27 07:50:22;;;;;;;24.07;8.83;;;10.50;98.50;;;;;;5052004;28;20032;-75
2021/05/27 07:52:49;;;;;;;22.23;8.73;;;10.50;98.50;;;;;;5074839;28;20017;-73
2021/05/27 07:55:15;;;;;;;25.53;8.83;;;10.50;98.40;;;;;;5073353;28;20086;-74
2021/05/27 07:57:41;;;;;;;23.37;8.63;;;10.60;98.40;;;;;;5073643;28;20024;-79
2021/05/27 08:00:08;;;;;;;23.50;8.83;;;10.50;98.40;;;;;;5061837;28;20029;-77
2021/05/27 08:02:34;;;;;;;22.77;9.07;;;10.50;98.40;;;;;;5054966;28;20029;-77
2021/05/27 08:05:00;;;;;;;27.20;8.57;;;10.60;98.50;;;;;;5054609;28;20032;-77
2021/05/27 08:07:26;;;;;;;30.40;9.50;;;10.60;98.50;;;;;;5053999;28;20028;-73
2021/05/27 08:09:51;;;;;;;18.33;8.00;;;10.70;98.70;;;;;;5053774;28;20485;-74
2021/05/27 08:12:17;;;;;;;26.67;8.57;;;10.70;98.50;;;;;;5041839;28;20031;-74
2021/05/27 08:14:42;;;;;;;21.57;8.57;;;10.70;98.30;;;;;;5054646;28;20028;-74
2021/05/27 08:17:08;;;;;;;17.87;8.30;;;10.70;98.20;;;;;;5053978;28;20441;-75
2021/05/27 08:19:35;;;;;;;19.47;8.20;;;10.70;98.10;;;;;;5054993;28;20120;-75
2021/05/27 08:22:01;;;;;;;17.90;7.10;;;10.70;97.90;;;;;;5054931;28;20068;-73
2021/05/27 08:24:27;;;;;;;15.03;6.13;;;10.70;97.80;;;;;;5036657;28;20493;-73
2021/05/27 08:26:53;;;;;;;19.03;6.73;;;10.70;97.80;;;;;;5053201;28;20021;-75
2021/05/27 08:29:18;;;;;;;20.53;6.10;;;10.70;97.80;;;;;;5054543;28;20033;-77
2021/05/27 08:31:44;;;;;;;23.23;7.67;;;10.70;97.90;;;;;;5054425;28;20060;-75
2021/05/27 08:34:10;;;;;;;17.17;6.23;;;10.70;97.80;;;;;;5053246;28;20029;-73
2021/05/27 08:36:38;;;;;;;19.70;7.83;;;10.70;97.80;;;;;;5069856;28;20357;-74
2021/05/27 08:39:05;;;;;;;16.50;6.53;;;10.70;97.60;;;;;;5052499;28;20032;-80
2021/05/27 08:41:31;;;;;;;21.47;6.93;;;10.70;97.60;;;;;;5070090;28;20060;-72
2021/05/27 08:43:57;;;;;;;16.97;6.70;;;10.70;97.60;;;;;;5053185;28;20485;-74
2021/05/27 08:46:23;;;;;;;20.43;5.73;;;10.70;97.40;;;;;;5055600;28;20133;-73
2021/05/27 08:48:50;;;;;;;22.20;6.13;;;10.70;97.50;;;;;;5059929;28;20035;-73
2021/05/27 08:51:17;;;;;;;22.63;8.03;;;10.80;97.60;;;;;;5052839;28;20025;-74
2021/05/27 08:53:44;;;;;;;15.40;6.00;;;10.80;97.60;;;;;;5063603;28;20414;-73
2021/05/27 08:56:11;;;;;;;18.03;5.90;;;10.90;97.70;;;;;;5053590;28;20025;-78
2021/05/27 08:58:37;;;;;;;17.17;6.00;;;10.90;97.60;;;;;;5055681;28;20521;-79
2021/05/27 09:01:03;;;;;;;16.83;5.80;;;11.00;97.70;;;;;;5059196;28;20021;-80
2021/05/27 09:03:58;;;;;;;17.83;5.80;;;11.00;97.30;;;;;;5072370;28;20460;-78
2021/05/27 09:06:24;;;;;;;21.90;6.07;;;11.00;97.30;;;;;;5074237;28;20098;-77
2021/05/27 09:09:07;;;;;;;20.83;6.07;;;11.00;97.30;;;;;;5048500;28;20404;-78
2021/05/27 09:11:37;;;;;;;19.53;6.10;;;11.00;97.20;;;;;;5060678;28;20469;-76
2021/05/27 09:14:03;;;;;;;18.13;6.33;;;11.00;97.10;;;;;;5069213;28;20035;-78
2021/05/27 09:16:29;;;;;;;19.77;6.40;;;11.00;97.10;;;;;;5073596;28;20383;-77
2021/05/27 09:18:55;;;;;;;21.23;6.50;;;10.90;97.10;;;;;;5072437;28;20120;-76
2021/05/27 09:21:39;;;;;;;20.17;6.43;;;11.00;97.20;;;;;;5055952;28;20393;-76
2021/05/27 09:24:06;;;;;;;19.40;6.72;;;10.90;97.20;;;;;;5072529;28;20415;-76
2021/05/27 09:26:32;;;;;;;20.53;6.83;;;10.90;97.00;;;;;;5073655;28;20063;-76
2021/05/27 09:29:12;;;;;;;21.50;6.80;;;10.90;97.10;;;;;;5057645;28;20061;-77
2021/05/27 09:31:59;;;;;;;21.27;6.30;;;11.00;97.20;;;;;;5053562;28;20029;-80
2021/05/27 09:34:47;;;;;;;17.93;5.80;;;11.00;97.10;;;;;;5053632;28;20036;-81
2021/05/27 09:37:30;;;;;;;15.13;7.00;;;11.10;97.00;;;;;;5053681;28;20040;-77
2021/05/27 09:39:58;;;;;;;14.37;6.10;;;11.10;96.90;;;;;;5053383;28;20095;-79
2021/05/27 09:42:23;;;;;;;17.30;5.80;;;11.20;96.60;;;;;;5052257;28;20451;-78
2021/05/27 09:44:50;;;;;;;17.93;6.40;;;11.20;96.40;;;;;;5035353;28;20120;-79
2021/05/27 09:47:29;;;;;;;19.77;6.00;;;11.20;96.40;;;;;;5056560;28;20116;-79
2021/05/27 09:49:59;;;;;;;21.30;6.50;;;11.20;96.00;;;;;;5046977;28;20033;-79
2021/05/27 09:52:44;;;;;;;17.63;6.37;;;11.20;95.80;;;;;;5057636;28;20036;-79
2021/05/27 09:55:19;;;;;;;20.07;6.43;;;11.10;95.80;;;;;;5058539;28;20499;-77
2021/05/27 09:57:47;;;;;;;22.63;8.33;;;11.10;95.80;;;;;;5063307;28;20017;-80
2021/05/27 10:00:21;;;;;;;23.83;8.67;;;11.10;95.70;;;;;;5067282;28;20040;-77
2021/05/27 10:02:48;;;;;;;25.00;8.30;;;11.10;95.80;;;;;;5056713;28;20021;-79
2021/05/27 10:05:14;;;;;;;19.90;7.57;;;11.10;95.70;;;;;;5041520;28;20394;-77
2021/05/27 10:07:47;;;;;;;24.30;7.50;;;11.20;95.80;;;;;;5058074;28;20068;-77
2021/05/27 10:10:14;;;;;;;26.90;7.53;;;11.20;95.80;;;;;;5056843;28;20037;-81
2021/05/27 10:12:42;;;;;;;21.83;7.63;;;11.20;95.70;;;;;;5039371;28;20037;-76
2021/05/27 10:15:10;;;;;;;21.50;7.03;;;11.20;95.70;;;;;;5055847;28;20025;-77
2021/05/27 10:17:37;;;;;;;20.67;7.10;;;11.30;95.70;;;;;;5060085;28;20119;-77
2021/05/27 10:20:11;;;;;;;22.37;7.17;;;11.40;95.60;;;;;;5075752;28;20036;-78
2021/05/27 10:22:37;;;;;;;18.42;7.75;;;11.40;95.60;;;;;;5068945;28;20040;-79
2021/05/27 10:25:08;;;;;;;19.73;7.17;;;11.50;95.60;;;;;;5067814;28;20384;-78
2021/05/27 10:27:34;;;;;;;26.38;7.70;;;11.60;95.60;;;;;;5064875;28;20017;-78
2021/05/27 10:30:03;;;;;;;20.48;6.60;;;11.70;95.50;;;;;;5064440;28;20040;-79
2021/05/27 10:32:29;;;;;;;25.45;7.63;;;11.80;95.10;;;;;;5065425;28;20096;-74
2021/05/27 10:34:55;;;;;;;17.42;6.15;;;11.90;95.00;;;;;;5051212;28;20039;-75
2021/05/27 10:37:33;;;;;;;17.00;7.07;;;12.00;95.00;;;;;;5065097;28;20483;-77
2021/05/27 10:40:22;;;;;;;23.83;6.43;;;12.00;94.60;;;;;;5066567;28;20463;-79
2021/05/27 10:42:58;;;;;;;19.95;7.60;;;12.00;94.30;;;;;;5067107;28;20028;-77
2021/05/27 10:45:32;;;;;;;21.25;8.48;;;12.00;94.10;;;;;;5069552;28;20044;-76
2021/05/27 10:48:16;;;;;;;23.42;8.50;;;12.00;94.10;;;;;;5075614;28;20028;-77
2021/05/27 10:51:08;;;;;;;27.05;8.93;;;11.90;94.20;;;;;;5076304;28;20035;-79
2021/05/27 10:53:40;;;;;;;23.02;7.80;;;11.90;93.90;;;;;;5076421;28;20030;-80
2021/05/27 10:56:38;;;;;;;25.80;8.20;;;11.80;94.00;;;;;;5076152;28;20468;-81
2021/05/27 10:59:09;;;;;;;18.67;7.15;;;11.80;94.20;;;;;;5074906;28;20099;-77
2021/05/27 11:01:35;;;;;;;26.75;8.32;;;11.70;94.40;;;;;;5075124;28;20036;-79
2021/05/27 11:04:04;;;;;;;23.27;8.20;;;11.60;94.70;;;;;;5074783;28;20078;-77
2021/05/27 11:06:41;;;;;;;31.43;8.37;;;11.70;94.90;;;;;;5066924;28;20055;-78
2021/05/27 11:09:25;;;;;;;22.57;7.63;;;11.70;95.00;;;;;;5056733;28;20064;-80
2021/05/27 11:12:10;;;;;;;29.63;7.82;;;11.70;94.90;;;;;;5056239;28;20033;-77
2021/05/27 11:14:41;;;;;;;20.03;8.47;;;11.60;95.10;;;;;;5063210;28;20391;-76
2021/05/27 11:17:07;;;;;;;18.33;7.72;;;11.70;95.00;;;;;;5076215;28;20032;-78
2021/05/27 11:25:15;;;;;;;20.87;7.27;;;11.60;95.00;;;;;;5075422;28;20025;-74
2021/05/27 11:27:44;;;;;;;17.77;6.53;;;11.70;95.00;;;;;;5073817;28;20040;-75
2021/05/27 11:30:28;;;;;;;16.80;6.80;;;11.60;95.00;;;;;;5070944;28;20361;-75
2021/05/27 11:32:59;;;;;;;20.75;7.70;;;11.80;95.20;;;;;;5072407;28;20021;-75
2021/05/27 11:35:27;;;;;;;13.67;5.77;;;11.80;95.10;;;;;;5075068;28;20028;-74
2021/05/27 11:37:53;;;;;;;17.83;6.55;;;11.90;95.30;;;;;;5074336;28;20025;-77
2021/05/27 11:40:27;;;;;;;13.02;6.45;;;11.90;95.40;;;;;;5063611;28;20061;-78
2021/05/27 11:42:54;;;;;;;14.97;5.70;;;11.90;95.40;;;;;;5055517;28;20051;-79
2021/05/27 11:45:23;;;;;;;14.03;6.23;;;12.00;95.40;;;;;;5054129;28;20441;-77
2021/05/27 11:48:27;;;;;;;16.80;6.50;;;12.00;95.30;;;;;;5055145;28;20055;-75
2021/05/27 11:51:12;;;;;;;15.50;5.93;;;12.00;95.40;;;;;;5070677;28;20029;-77
2021/05/27 11:53:51;;;;;;;21.65;7.88;;;12.10;95.40;;;;;;5055577;28;20059;-75
2021/05/27 11:56:36;;;;;;;11.50;6.00;;;12.10;95.20;;;;;;5056738;28;20083;-73
2021/05/27 11:59:04;;;;;;;15.73;5.85;;;12.10;95.30;;;;;;5070577;28;20103;-75
2021/05/27 12:01:30;;;;;;;19.27;6.68;;;12.30;95.30;;;;;;5045874;28;20546;-73
2021/05/27 12:03:58;;;;;;;17.15;5.68;;;12.30;95.20;;;;;;5054614;28;20029;-76
2021/05/27 12:06:25;;;;;;;14.93;5.88;;;12.40;95.00;;;;;;5054826;28;20032;-73
2021/05/27 12:08:51;;;;;;;17.70;6.03;;;12.50;94.80;;;;;;5062005;28;20056;-74
2021/05/27 12:11:30;;;;;;;14.13;5.32;;;12.60;94.80;;;;;;5055791;28;20063;-74
2021/05/27 12:14:01;;;;;;;13.65;5.30;;;12.70;95.10;;;;;;5074771;28;20103;-77
2021/05/27 12:16:34;;;;;;;14.82;5.95;;;12.80;94.60;;;;;;5073408;28;20404;-78
2021/05/27 12:19:07;;;;;;;15.55;5.05;;;12.90;94.50;;;;;;5073471;28;20559;-76
2021/05/27 12:21:35;;;;;;;11.88;4.75;;;12.90;94.00;;;;;;5039910;28;20055;-75
2021/05/27 12:24:01;;;;;;;15.25;5.00;;;13.00;93.80;;;;;;5073004;28;20024;-74
2021/05/27 12:26:28;;;;;;;11.82;5.18;;;12.90;93.60;;;;;;5065838;28;20027;-74
2021/05/27 12:28:53;;;;;;;15.18;4.55;;;12.90;93.40;;;;;;5056701;28;20368;-74
2021/05/27 12:31:20;;;;;;;9.90;4.05;;;12.80;93.40;;;;;;5073238;28;20029;-75
2021/05/27 12:33:46;;;;;;;16.05;4.38;;;12.70;93.40;;;;;;5074493;28;20024;-79
2021/05/27 12:36:12;;;;;;;14.50;4.65;;;12.60;93.60;;;;;;5072974;28;20549;-73
2021/05/27 12:38:47;;;;;;;17.10;4.57;;;12.50;93.60;;;;;;5055816;28;20115;-74
2021/05/27 12:41:14;;;;;;;15.75;5.32;;;12.40;93.80;;;;;;5066959;28;20380;-76
2021/05/27 12:43:46;;;;;;;13.65;4.28;;;12.40;93.90;;;;;;5055017;28;20025;-75
2021/05/27 12:46:13;;;;;;;10.93;3.92;;;12.40;93.90;;;;;;5053474;28;20037;-74
2021/05/27 12:48:59;;;;;;;12.15;4.95;;;12.40;93.90;;;;;;5052450;28;20031;-76
2021/05/27 12:51:27;;;;;;;11.10;3.85;;;12.50;93.90;;;;;;5053533;28;20044;-76
2021/05/27 12:53:59;;;;;;;7.80;3.33;;;12.50;94.10;;;;;;5058712;28;20457;-76
2021/05/27 12:56:30;;;;;;;13.07;3.70;;;12.60;94.10;;;;;;5061696;28;20024;-75